Time;durP1;ratioP1;P1;durP2;ratioP2;P2;SDS_P1;SDS_P2;PMS_P1;PMS_P2;Temp;Humidity;BMP_temperature;BMP_pressure;BME280_temperature;BME280_humidity;BME280_pressure;Samples;Min_cycle;Max_cycle;Signal;HPM_P1;HPM_P2
2023/08/09 00:01:54;;;;;;;3.78;1.63;;;20.00;97.30;;;;;;4068999;29;20052;-52
2023/08/09 00:03:56;;;;;;;5.05;1.60;;;20.00;97.70;;;;;;4068906;29;20044;-54
2023/08/09 00:06:00;;;;;;;4.13;1.60;;;19.90;97.70;;;;;;4068693;29;20501;-53
2023/08/09 00:08:03;;;;;;;6.57;1.58;;;19.90;97.90;;;;;;4069055;29;20055;-54
2023/08/09 00:10:05;;;;;;;8.68;1.88;;;19.90;97.80;;;;;;4068979;29;20055;-52
2023/08/09 00:12:07;;;;;;;6.63;2.00;;;19.90;97.80;;;;;;4068785;29;20104;-56
2023/08/09 00:14:09;;;;;;;3.95;1.67;;;19.90;97.90;;;;;;4068695;29;20107;-52
2023/08/09 00:16:12;;;;;;;5.43;1.80;;;19.90;97.80;;;;;;4068306;29;20441;-53
2023/08/09 00:18:14;;;;;;;5.25;1.67;;;19.90;97.90;;;;;;4068874;29;20131;-51
2023/08/09 00:20:16;;;;;;;5.05;1.65;;;19.90;97.80;;;;;;4068678;29;20071;-52
2023/08/09 00:22:20;;;;;;;4.10;1.65;;;19.80;97.70;;;;;;4068650;29;20058;-54
2023/08/09 00:24:22;;;;;;;6.22;1.88;;;19.80;98.10;;;;;;4068483;29;20052;-54
2023/08/09 00:26:25;;;;;;;10.35;1.70;;;19.80;98.10;;;;;;4068532;29;20127;-53
2023/08/09 00:28:27;;;;;;;10.38;2.42;;;19.80;98.10;;;;;;4068524;29;20135;-52
2023/08/09 00:30:29;;;;;;;4.20;1.63;;;19.80;98.10;;;;;;4068600;29;20048;-53
2023/08/09 00:32:33;;;;;;;2.65;1.20;;;19.80;98.30;;;;;;4068935;29;20080;-54
2023/08/09 00:34:35;;;;;;;6.03;1.70;;;19.80;98.60;;;;;;4051655;29;20465;-52
2023/08/09 00:36:37;;;;;;;3.80;1.77;;;19.80;98.20;;;;;;4068565;29;20048;-53
2023/08/09 00:38:41;;;;;;;5.82;1.90;;;19.70;98.40;;;;;;4068557;29;20139;-52
2023/08/09 00:40:43;;;;;;;3.20;1.65;;;19.70;98.50;;;;;;4068629;29;20048;-53
2023/08/09 00:42:45;;;;;;;5.55;1.90;;;19.70;98.40;;;;;;4068021;29;20058;-54
2023/08/09 00:44:47;;;;;;;4.43;1.58;;;19.70;98.60;;;;;;4067907;29;20048;-54
2023/08/09 00:46:50;;;;;;;4.65;1.40;;;19.60;98.70;;;;;;4068420;29;20200;-55
2023/08/09 00:48:52;;;;;;;2.53;1.55;;;19.70;98.60;;;;;;4068599;29;20052;-54
2023/08/09 00:50:54;;;;;;;3.42;1.83;;;19.60;98.60;;;;;;4067398;29;20402;-51
2023/08/09 00:52:57;;;;;;;3.42;1.63;;;19.60;98.70;;;;;;4068634;29;20048;-55
2023/08/09 00:55:03;;;;;;;5.75;1.90;;;19.70;98.70;;;;;;4067881;29;20076;-55
2023/08/09 00:57:06;;;;;;;8.23;1.65;;;19.60;99.00;;;;;;4068056;29;20048;-54
2023/08/09 00:59:08;;;;;;;4.32;1.42;;;19.70;98.90;;;;;;4068356;29;20044;-53
2023/08/09 01:01:10;;;;;;;9.52;1.65;;;19.70;98.40;;;;;;4067023;29;20056;-52
2023/08/09 01:03:14;;;;;;;5.25;1.63;;;19.70;98.60;;;;;;4068497;29;20426;-53
2023/08/09 01:05:16;;;;;;;2.83;1.70;;;19.70;98.70;;;;;;4067651;29;20048;-54
2023/08/09 01:07:27;;;;;;;3.22;1.38;;;19.70;98.60;;;;;;4066899;29;20044;-52
2023/08/09 01:09:36;;;;;;;5.32;1.90;;;19.80;98.80;;;;;;4068134;29;20363;-51
2023/08/09 01:11:48;;;;;;;2.85;1.80;;;19.80;98.80;;;;;;4066511;29;20082;-53
2023/08/09 01:13:53;;;;;;;5.15;1.92;;;19.70;98.80;;;;;;4068269;29;20048;-52
2023/08/09 01:15:57;;;;;;;3.92;1.42;;;19.80;98.70;;;;;;4067387;29;20066;-52
2023/08/09 01:18:01;;;;;;;5.63;2.08;;;19.80;98.60;;;;;;4068101;29;20048;-53
2023/08/09 01:20:07;;;;;;;3.28;1.60;;;19.80;98.90;;;;;;4068417;29;20055;-53
2023/08/09 01:22:17;;;;;;;4.50;1.80;;;19.80;98.90;;;;;;4068185;29;20063;-53
2023/08/09 01:24:22;;;;;;;5.03;1.73;;;19.80;98.90;;;;;;4068325;29;20434;-52
2023/08/09 01:26:24;;;;;;;4.70;1.38;;;19.80;99.00;;;;;;4067094;29;20072;-52
2023/08/09 01:28:26;;;;;;;4.22;1.25;;;19.70;99.00;;;;;;4067993;29;20474;-52
2023/08/09 01:30:29;;;;;;;4.68;1.45;;;19.70;99.00;;;;;;4068136;29;20083;-53
2023/08/09 01:32:37;;;;;;;4.20;1.90;;;19.70;99.00;;;;;;4067903;29;20395;-52
2023/08/09 01:34:40;;;;;;;4.20;1.60;;;19.60;99.30;;;;;;4067643;29;20078;-52
2023/08/09 01:36:45;;;;;;;6.22;1.70;;;19.60;99.30;;;;;;4067681;29;20052;-53
2023/08/09 01:38:53;;;;;;;4.93;1.60;;;19.50;99.30;;;;;;4067907;29;20044;-53
2023/08/09 01:40:57;;;;;;;4.53;1.85;;;19.50;99.30;;;;;;4066524;29;20056;-53
2023/08/09 01:42:59;;;;;;;3.50;1.60;;;19.50;99.60;;;;;;4067960;29;20048;-53
2023/08/09 01:45:10;;;;;;;4.18;1.65;;;19.50;99.80;;;;;;4067316;29;20048;-54
2023/08/09 01:47:13;;;;;;;3.40;1.48;;;19.50;99.80;;;;;;4067656;29;20139;-54
2023/08/09 01:49:21;;;;;;;3.60;1.33;;;19.50;99.80;;;;;;4067956;29;20482;-53
2023/08/09 01:51:23;;;;;;;4.28;1.67;;;19.50;99.70;;;;;;4067685;29;20052;-51
2023/08/09 01:53:25;;;;;;;4.13;1.63;;;19.50;99.90;;;;;;4067742;29;20044;-52
2023/08/09 01:55:27;;;;;;;6.20;1.70;;;19.50;99.70;;;;;;4066762;29;20059;-52
2023/08/09 01:57:31;;;;;;;4.28;1.85;;;19.60;99.90;;;;;;4067933;29;20048;-52
2023/08/09 01:59:33;;;;;;;5.28;1.70;;;19.60;99.90;;;;;;4067977;29;20056;-51
2023/08/09 02:01:36;;;;;;;4.13;1.52;;;19.60;99.80;;;;;;4067849;29;20052;-53
2023/08/09 02:03:38;;;;;;;4.15;1.50;;;19.50;99.80;;;;;;4070806;29;20062;-51
2023/08/09 02:05:41;;;;;;;4.25;1.70;;;19.50;99.90;;;;;;4070015;29;20123;-54
2023/08/09 02:07:43;;;;;;;4.35;1.52;;;19.60;99.90;;;;;;4070800;29;20052;-56
2023/08/09 02:09:45;;;;;;;3.92;1.67;;;19.60;99.90;;;;;;4070271;29;20052;-56
2023/08/09 02:11:47;;;;;;;5.93;1.55;;;19.60;99.90;;;;;;4070929;29;20451;-56
2023/08/09 02:13:50;;;;;;;2.92;1.60;;;19.50;99.90;;;;;;4070628;29;20470;-55
2023/08/09 02:15:52;;;;;;;2.47;1.58;;;19.50;99.90;;;;;;4070094;29;20044;-55
2023/08/09 02:17:58;;;;;;;4.85;1.48;;;19.50;99.90;;;;;;4070837;29;20048;-55
2023/08/09 02:20:00;;;;;;;2.00;1.25;;;19.50;99.90;;;;;;4070619;29;20056;-56
2023/08/09 02:22:03;;;;;;;8.05;1.98;;;19.40;99.90;;;;;;4053947;29;20238;-56
2023/08/09 02:24:06;;;;;;;2.95;1.40;;;19.40;99.90;;;;;;4070360;29;20086;-55
2023/08/09 02:26:08;;;;;;;4.57;1.80;;;19.40;99.90;;;;;;4068861;29;20429;-56
2023/08/09 02:28:10;;;;;;;3.55;1.75;;;19.40;99.90;;;;;;4069716;29;20438;-53
2023/08/09 02:30:14;;;;;;;7.82;1.63;;;19.50;99.90;;;;;;4070571;29;20430;-54
2023/08/09 02:32:16;;;;;;;4.68;1.25;;;19.40;99.90;;;;;;4070644;29;20059;-55
2023/08/09 02:34:19;;;;;;;9.40;1.80;;;19.50;99.90;;;;;;4070604;29;20072;-55
2023/08/09 02:36:22;;;;;;;5.18;1.40;;;19.40;99.90;;;;;;4069909;29;20079;-52
2023/08/09 02:38:25;;;;;;;7.10;1.80;;;19.40;99.90;;;;;;4069930;29;20123;-55
2023/08/09 02:40:27;;;;;;;3.55;1.38;;;19.40;99.90;;;;;;4070505;29;20483;-55
2023/08/09 02:42:29;;;;;;;8.13;1.50;;;19.30;99.90;;;;;;4070190;29;20048;-54
2023/08/09 02:44:32;;;;;;;6.93;1.70;;;19.30;99.90;;;;;;4070220;29;20044;-54
2023/08/09 02:46:36;;;;;;;4.03;1.75;;;19.30;99.90;;;;;;4069768;29;20072;-52
2023/08/09 02:48:38;;;;;;;3.55;1.45;;;19.20;99.90;;;;;;4070530;29;20048;-52
2023/08/09 02:50:41;;;;;;;2.67;1.50;;;19.20;99.90;;;;;;4070093;29;20062;-52
2023/08/09 02:52:43;;;;;;;4.22;1.33;;;19.20;99.90;;;;;;4069857;29;20160;-53
2023/08/09 02:54:45;;;;;;;4.20;1.20;;;19.10;99.90;;;;;;4070006;29;20059;-52
2023/08/09 02:56:47;;;;;;;3.70;1.63;;;19.10;99.90;;;;;;4069588;29;20080;-53
2023/08/09 02:58:49;;;;;;;3.15;1.30;;;19.10;99.90;;;;;;4070048;29;20478;-52
2023/08/09 03:00:51;;;;;;;4.65;1.40;;;19.10;99.90;;;;;;4069953;29;20048;-52
2023/08/09 03:02:54;;;;;;;2.75;1.50;;;19.00;99.90;;;;;;4069998;29;20055;-52
2023/08/09 03:04:59;;;;;;;2.97;1.30;;;19.00;99.90;;;;;;4069781;29;20083;-52
2023/08/09 03:07:02;;;;;;;3.55;1.55;;;19.00;99.90;;;;;;4069513;29;20111;-53
2023/08/09 03:09:06;;;;;;;4.63;1.40;;;19.00;99.90;;;;;;4070017;29;20076;-51
2023/08/09 03:11:08;;;;;;;2.03;1.45;;;19.00;99.90;;;;;;4069563;29;20074;-52
2023/08/09 03:13:10;;;;;;;3.35;1.10;;;19.00;99.90;;;;;;4069086;29;20052;-54
2023/08/09 03:15:12;;;;;;;3.40;1.42;;;19.00;99.90;;;;;;4068812;29;20401;-55
2023/08/09 03:17:14;;;;;;;5.65;1.75;;;19.10;99.90;;;;;;4069730;29;20490;-53
2023/08/09 03:19:17;;;;;;;3.85;1.27;;;19.10;99.90;;;;;;4069868;29;20099;-55
2023/08/09 03:21:19;;;;;;;3.15;1.35;;;19.10;99.90;;;;;;4069794;29;20048;-55
2023/08/09 03:23:21;;;;;;;5.32;1.40;;;19.10;99.90;;;;;;4069524;29;20131;-55
2023/08/09 03:25:24;;;;;;;3.17;1.13;;;19.10;99.90;;;;;;4069234;29;20047;-54
2023/08/09 03:27:26;;;;;;;3.92;1.85;;;19.10;99.90;;;;;;4069479;29;20521;-55
2023/08/09 03:29:28;;;;;;;1.85;1.30;;;19.10;99.90;;;;;;4069514;29;20048;-54
2023/08/09 03:31:30;;;;;;;5.00;1.20;;;19.10;99.90;;;;;;4069457;29;20127;-53
2023/08/09 03:33:33;;;;;;;2.40;1.10;;;19.10;99.90;;;;;;4069359;29;20135;-53
2023/08/09 03:35:37;;;;;;;2.80;1.40;;;19.00;99.90;;;;;;4069051;29;20047;-51
2023/08/09 03:37:39;;;;;;;4.28;1.40;;;19.10;99.90;;;;;;4069132;29;20526;-53
2023/08/09 03:39:42;;;;;;;4.55;1.20;;;19.10;99.90;;;;;;4069313;29;20127;-54
2023/08/09 03:41:44;;;;;;;5.28;1.77;;;19.10;99.90;;;;;;4069557;29;20080;-54
2023/08/09 03:43:46;;;;;;;3.83;1.23;;;19.10;99.90;;;;;;4069297;29;20078;-54
2023/08/09 03:45:48;;;;;;;3.90;1.23;;;19.20;99.90;;;;;;4068664;29;20063;-53
2023/08/09 03:47:50;;;;;;;2.63;1.60;;;19.10;99.90;;;;;;4069239;29;20052;-54
2023/08/09 03:49:52;;;;;;;3.67;1.20;;;19.20;99.90;;;;;;4069313;29;20585;-53
2023/08/09 03:51:56;;;;;;;6.00;1.25;;;19.20;99.90;;;;;;4068908;29;20394;-53
2023/08/09 03:53:59;;;;;;;4.43;1.50;;;19.20;99.90;;;;;;4069434;29;20052;-54
2023/08/09 03:56:01;;;;;;;5.00;1.10;;;19.20;99.90;;;;;;4068672;29;20079;-54
2023/08/09 03:58:03;;;;;;;3.10;1.40;;;19.20;99.90;;;;;;4069097;29;20439;-54
2023/08/09 04:00:09;;;;;;;3.20;1.17;;;19.10;99.90;;;;;;4069322;29;20059;-55
2023/08/09 04:02:11;;;;;;;2.28;1.35;;;19.10;99.90;;;;;;4069241;29;20044;-52
2023/08/09 04:04:13;;;;;;;4.60;1.30;;;19.10;99.90;;;;;;4069329;29;20075;-51
2023/08/09 04:06:15;;;;;;;3.47;1.42;;;19.10;99.90;;;;;;4066874;29;20070;-52
2023/08/09 04:08:21;;;;;;;4.15;1.25;;;19.10;99.90;;;;;;4069091;29;20080;-53
2023/08/09 04:10:23;;;;;;;5.05;1.20;;;19.10;99.90;;;;;;4068828;29;20422;-54
2023/08/09 04:12:25;;;;;;;2.63;1.20;;;19.10;99.90;;;;;;4068790;29;20056;-55
2023/08/09 04:14:27;;;;;;;5.05;1.13;;;19.10;99.90;;;;;;4069059;29;20189;-53
2023/08/09 04:16:29;;;;;;;3.72;1.30;;;19.10;99.90;;;;;;4068393;29;20107;-53
2023/08/09 04:18:32;;;;;;;3.10;1.10;;;19.10;99.90;;;;;;4069050;29;20066;-53
2023/08/09 04:20:34;;;;;;;2.80;1.35;;;19.10;99.90;;;;;;4068678;29;20067;-52
2023/08/09 04:22:36;;;;;;;4.47;1.35;;;19.10;99.90;;;;;;4068812;29;20059;-52
2023/08/09 04:24:40;;;;;;;2.85;1.00;;;19.10;99.90;;;;;;4068344;29;20485;-52
2023/08/09 04:26:42;;;;;;;4.28;1.50;;;19.10;99.90;;;;;;4068395;29;20071;-52
2023/08/09 04:28:45;;;;;;;5.03;1.10;;;19.10;99.90;;;;;;4068628;29;20498;-52
2023/08/09 04:30:47;;;;;;;3.10;1.23;;;19.10;99.90;;;;;;4068512;29;20127;-52
2023/08/09 04:32:49;;;;;;;4.18;1.08;;;19.00;99.90;;;;;;4068745;29;20092;-51
2023/08/09 04:34:52;;;;;;;6.15;1.33;;;19.00;99.90;;;;;;4068428;29;20075;-52
2023/08/09 04:36:54;;;;;;;2.30;0.85;;;19.10;99.90;;;;;;4066652;29;20059;-52
2023/08/09 04:38:56;;;;;;;2.95;1.17;;;19.00;99.90;;;;;;4068630;29;20060;-53
2023/08/09 04:41:00;;;;;;;3.72;1.52;;;19.00;99.90;;;;;;4068576;29;20067;-54
2023/08/09 04:43:02;;;;;;;2.03;1.20;;;19.10;99.90;;;;;;4068604;29;20513;-53
2023/08/09 04:45:07;;;;;;;2.70;0.95;;;19.00;99.90;;;;;;4068677;29;20082;-53
2023/08/09 04:47:09;;;;;;;4.45;1.35;;;19.00;99.90;;;;;;4067977;29;20044;-54
2023/08/09 04:49:12;;;;;;;3.03;1.13;;;19.00;99.90;;;;;;4068004;29;20052;-53
2023/08/09 04:51:14;;;;;;;3.20;1.30;;;19.00;99.90;;;;;;4068292;29;20040;-53
2023/08/09 04:53:16;;;;;;;2.17;1.25;;;19.10;99.90;;;;;;4068418;29;20494;-52
2023/08/09 04:55:19;;;;;;;4.07;1.30;;;19.00;99.90;;;;;;4068229;29;20070;-54
2023/08/09 04:57:23;;;;;;;4.18;1.48;;;19.10;99.90;;;;;;4068483;29;20044;-53
2023/08/09 04:59:25;;;;;;;3.03;1.50;;;19.10;99.90;;;;;;4068389;29;20484;-54
2023/08/09 05:01:27;;;;;;;4.15;1.33;;;19.10;99.90;;;;;;4068166;29;20099;-53
2023/08/09 05:03:30;;;;;;;2.17;1.20;;;19.00;99.90;;;;;;4068115;29;20099;-53
2023/08/09 05:05:32;;;;;;;2.45;1.40;;;19.00;99.90;;;;;;4067799;29;20044;-52
2023/08/09 05:07:35;;;;;;;3.28;1.35;;;19.10;99.90;;;;;;4068075;29;20147;-51
2023/08/09 05:09:38;;;;;;;5.30;1.92;;;19.10;99.90;;;;;;4068088;29;20095;-52
2023/08/09 05:11:40;;;;;;;3.60;1.70;;;19.10;99.90;;;;;;4067963;29;20374;-52
2023/08/09 05:13:45;;;;;;;3.25;1.40;;;19.10;99.90;;;;;;4068297;29;20055;-52
2023/08/09 05:15:47;;;;;;;4.78;1.58;;;19.20;99.90;;;;;;4067431;29;20048;-52
2023/08/09 05:17:49;;;;;;;4.88;1.60;;;19.20;99.90;;;;;;4067689;29;20306;-52
2023/08/09 05:19:52;;;;;;;2.33;1.15;;;19.20;99.90;;;;;;4068335;29;20054;-53
2023/08/09 05:21:54;;;;;;;2.53;1.30;;;19.20;99.90;;;;;;4068032;29;20056;-52
2023/08/09 05:23:56;;;;;;;2.28;1.25;;;19.20;99.90;;;;;;4068113;29;20072;-53
2023/08/09 05:25:59;;;;;;;3.20;1.40;;;19.20;99.90;;;;;;4067621;29;20079;-51
2023/08/09 05:28:01;;;;;;;5.53;0.77;;;19.20;99.90;;;;;;4068171;29;20072;-52
2023/08/09 05:30:06;;;;;;;2.85;1.10;;;19.10;99.90;;;;;;4068114;29;20146;-52
2023/08/09 05:32:08;;;;;;;;;;;19.20;99.90;;;;;;4068154;29;20051;-55
2023/08/09 05:34:10;;;;;;;7.88;1.27;;;19.10;99.90;;;;;;4068165;29;19929;-56
2023/08/09 05:36:11;;;;;;;1.27;0.90;;;19.20;99.90;;;;;;4067274;29;20058;-54
2023/08/09 05:38:14;;;;;;;4.00;0.80;;;19.20;99.90;;;;;;4070973;29;20123;-56
2023/08/09 05:40:16;;;;;;;2.65;0.93;;;19.20;99.90;;;;;;4071166;29;20138;-54
2023/08/09 05:42:18;;;;;;;3.15;0.82;;;19.10;99.90;;;;;;4071210;29;20079;-55
2023/08/09 05:44:21;;;;;;;4.15;1.05;;;19.10;99.90;;;;;;4071172;29;20055;-52
2023/08/09 05:46:24;;;;;;;4.32;0.88;;;19.20;99.90;;;;;;4070382;29;20508;-52
2023/08/09 05:48:26;;;;;;;2.20;0.88;;;19.10;99.90;;;;;;4070770;29;20075;-52
2023/08/09 05:50:28;;;;;;;3.17;1.10;;;19.10;99.90;;;;;;4071020;29;20490;-52
2023/08/09 05:52:30;;;;;;;1.92;0.90;;;19.00;99.90;;;;;;4071077;29;20458;-52
2023/08/09 05:54:32;;;;;;;0.50;0.50;;;19.00;99.90;;;;;;4071245;29;20451;-54
2023/08/09 05:56:35;;;;;;;2.85;0.80;;;19.10;99.90;;;;;;4070327;29;20466;-54
2023/08/09 05:58:37;;;;;;;1.92;0.80;;;19.10;99.90;;;;;;4071257;29;20068;-54
2023/08/09 06:00:39;;;;;;;3.00;0.80;;;19.20;99.90;;;;;;4071195;29;20136;-52
2023/08/09 06:02:44;;;;;;;1.88;1.02;;;19.30;99.90;;;;;;4070510;29;20052;-53
2023/08/09 06:04:47;;;;;;;2.05;0.75;;;19.40;99.90;;;;;;4070805;29;20048;-52
2023/08/09 06:06:49;;;;;;;1.80;0.80;;;19.40;99.90;;;;;;4070289;29;20395;-54
2023/08/09 06:08:51;;;;;;;3.20;0.80;;;19.50;99.90;;;;;;4070782;29;20455;-53
2023/08/09 06:10:53;;;;;;;1.60;0.73;;;19.50;99.90;;;;;;4070978;29;20068;-54
2023/08/09 06:12:59;;;;;;;1.38;0.68;;;19.40;99.90;;;;;;4071141;29;20052;-54
2023/08/09 06:15:01;;;;;;;2.45;0.65;;;19.50;99.90;;;;;;4070739;29;20052;-53
2023/08/09 06:17:03;;;;;;;1.63;0.77;;;19.40;99.90;;;;;;4070005;29;20044;-54
2023/08/09 06:19:08;;;;;;;1.17;0.88;;;19.40;99.90;;;;;;4071066;29;20052;-57
2023/08/09 06:21:10;;;;;;;0.80;0.68;;;19.40;99.90;;;;;;4070656;29;20491;-52
2023/08/09 06:23:12;;;;;;;2.42;0.95;;;19.40;99.90;;;;;;4085078;29;20112;-52
2023/08/09 06:25:16;;;;;;;2.58;1.30;;;19.40;99.90;;;;;;4070691;29;20079;-52
2023/08/09 06:27:19;;;;;;;2.50;0.98;;;19.40;99.90;;;;;;4069915;29;20044;-52
2023/08/09 06:29:21;;;;;;;4.78;1.30;;;19.30;99.90;;;;;;4070685;29;20415;-53
2023/08/09 06:31:23;;;;;;;1.00;0.90;;;19.40;99.90;;;;;;4070072;29;20119;-52
2023/08/09 06:33:25;;;;;;;4.03;1.10;;;19.30;99.90;;;;;;4070724;29;20160;-53
2023/08/09 06:35:30;;;;;;;1.98;1.30;;;19.40;99.90;;;;;;4070540;29;20530;-51
2023/08/09 06:37:32;;;;;;;4.13;1.40;;;19.40;99.90;;;;;;4070226;29;20530;-53
2023/08/09 06:39:35;;;;;;;2.97;1.27;;;19.40;99.90;;;;;;4070388;29;20052;-52
2023/08/09 06:41:37;;;;;;;3.35;1.10;;;19.30;99.90;;;;;;4070533;29;20056;-53
2023/08/09 06:43:40;;;;;;;2.10;1.42;;;19.20;99.90;;;;;;4070433;29;20181;-52
2023/08/09 06:45:42;;;;;;;2.42;1.30;;;19.20;99.90;;;;;;4069796;29;20055;-53
2023/08/09 06:47:44;;;;;;;5.90;1.50;;;19.20;99.90;;;;;;4070057;29;20048;-52
2023/08/09 06:49:46;;;;;;;2.78;1.10;;;19.20;99.90;;;;;;4070261;29;20083;-52
2023/08/09 06:51:50;;;;;;;3.85;1.27;;;19.10;99.90;;;;;;4070156;29;20059;-52
2023/08/09 06:53:52;;;;;;;2.25;1.20;;;19.10;99.90;;;;;;4069104;29;20459;-53
2023/08/09 06:55:54;;;;;;;2.30;1.33;;;19.10;99.90;;;;;;4069715;29;20044;-52
2023/08/09 06:57:57;;;;;;;2.17;1.35;;;19.10;99.90;;;;;;4070009;29;20052;-53
2023/08/09 06:59:59;;;;;;;4.63;1.40;;;19.30;99.90;;;;;;4070052;29;20458;-52
2023/08/09 07:02:01;;;;;;;1.98;1.33;;;19.30;99.90;;;;;;4070130;29;20502;-52
2023/08/09 07:04:04;;;;;;;1.60;1.17;;;19.20;99.90;;;;;;4070117;29;20103;-53
2023/08/09 07:06:06;;;;;;;1.90;1.40;;;19.20;99.90;;;;;;4069516;29;20485;-53
2023/08/09 07:08:10;;;;;;;1.88;1.30;;;19.30;99.90;;;;;;4070030;29;20119;-53
2023/08/09 07:10:13;;;;;;;2.63;1.40;;;19.30;99.90;;;;;;4069690;29;20120;-52
2023/08/09 07:12:15;;;;;;;2.83;1.27;;;19.30;99.90;;;;;;4070065;29;20506;-52
2023/08/09 07:14:17;;;;;;;2.67;1.20;;;19.40;99.90;;;;;;4069591;29;20047;-53
2023/08/09 07:16:19;;;;;;;2.28;1.10;;;19.40;99.90;;;;;;4069274;29;20052;-52
2023/08/09 07:18:22;;;;;;;3.25;1.40;;;19.50;99.90;;;;;;4069800;29;20128;-53
2023/08/09 07:20:24;;;;;;;3.22;1.30;;;19.60;99.90;;;;;;4069966;29;20376;-52
2023/08/09 07:22:26;;;;;;;2.92;1.40;;;19.60;99.90;;;;;;4069613;29;20048;-52
2023/08/09 07:24:29;;;;;;;1.77;1.10;;;19.60;99.90;;;;;;4069692;29;20048;-53
2023/08/09 07:26:32;;;;;;;3.70;1.30;;;19.60;99.90;;;;;;4069269;29;20497;-52
2023/08/09 07:28:34;;;;;;;3.08;1.20;;;19.70;99.90;;;;;;4069553;29;20052;-52
2023/08/09 07:30:36;;;;;;;3.45;1.25;;;19.80;99.90;;;;;;4069716;29;20056;-52
2023/08/09 07:32:38;;;;;;;1.98;1.05;;;19.80;99.90;;;;;;4069706;29;20052;-52
2023/08/09 07:34:41;;;;;;;4.63;1.48;;;19.90;99.90;;;;;;4069557;29;20087;-52
2023/08/09 07:36:43;;;;;;;2.67;1.40;;;19.90;99.90;;;;;;4068912;29;20079;-53
2023/08/09 07:38:45;;;;;;;2.92;1.35;;;20.10;99.90;;;;;;4068269;29;20075;-53
2023/08/09 07:40:49;;;;;;;5.78;1.42;;;20.40;99.90;;;;;;4069503;29;20048;-52
2023/08/09 07:42:51;;;;;;;3.92;1.00;;;20.50;99.90;;;;;;4069049;29;20052;-55
2023/08/09 07:44:53;;;;;;;2.45;0.98;;;20.50;99.90;;;;;;4068406;29;20058;-55
2023/08/09 07:46:55;;;;;;;5.57;1.30;;;20.50;99.90;;;;;;4068886;29;20048;-55
2023/08/09 07:48:57;;;;;;;2.70;1.17;;;20.40;99.90;;;;;;4069317;29;20048;-55
2023/08/09 07:51:00;;;;;;;3.60;1.50;;;20.40;99.90;;;;;;4069399;29;20044;-55
2023/08/09 07:53:02;;;;;;;3.47;1.60;;;20.30;99.90;;;;;;4069143;29;20048;-53
2023/08/09 07:55:05;;;;;;;1.30;1.02;;;20.20;99.90;;;;;;4069461;29;20048;-52
2023/08/09 07:57:09;;;;;;;3.33;1.25;;;20.20;99.90;;;;;;4068747;29;20123;-54
2023/08/09 07:59:11;;;;;;;1.88;1.00;;;20.20;99.90;;;;;;4069369;29;20409;-55
2023/08/09 08:01:13;;;;;;;1.83;1.00;;;20.30;99.90;;;;;;4069250;29;20051;-55
2023/08/09 08:03:15;;;;;;;1.63;1.20;;;20.30;99.90;;;;;;4069421;29;20052;-54
2023/08/09 08:05:17;;;;;;;1.80;1.00;;;20.30;99.90;;;;;;4069666;29;20099;-55
2023/08/09 08:07:19;;;;;;;1.55;0.90;;;20.30;99.90;;;;;;4068754;29;20052;-55
2023/08/09 08:09:21;;;;;;;3.63;1.20;;;20.40;99.90;;;;;;4069272;29;20164;-55
2023/08/09 08:11:24;;;;;;;2.78;1.10;;;20.40;99.90;;;;;;4068984;29;20129;-52
2023/08/09 08:13:27;;;;;;;1.73;1.00;;;20.50;99.90;;;;;;4051439;29;20052;-54
2023/08/09 08:15:29;;;;;;;1.50;1.00;;;20.50;99.90;;;;;;4050627;29;20048;-51
2023/08/09 08:17:31;;;;;;;2.05;1.20;;;20.40;99.90;;;;;;4046844;29;20740;-52
2023/08/09 08:19:33;;;;;;;2.45;1.23;;;20.50;99.90;;;;;;4051135;29;20053;-53
2023/08/09 08:21:36;;;;;;;2.55;0.80;;;20.50;99.90;;;;;;4066179;29;20098;-55
2023/08/09 08:23:38;;;;;;;4.35;0.98;;;20.50;99.90;;;;;;4051508;29;20052;-53
2023/08/09 08:25:41;;;;;;;2.90;1.20;;;20.50;99.90;;;;;;4051257;29;20055;-55
2023/08/09 08:27:45;;;;;;;4.13;1.20;;;20.60;99.90;;;;;;4049029;29;20048;-55
2023/08/09 08:29:49;;;;;;;1.85;0.93;;;20.90;99.90;;;;;;4052002;29;20052;-54
2023/08/09 08:31:51;;;;;;;2.13;1.02;;;21.10;99.90;;;;;;4051744;29;20124;-54
2023/08/09 08:33:54;;;;;;;5.75;1.15;;;21.20;99.90;;;;;;4051644;29;20072;-54
2023/08/09 08:35:56;;;;;;;3.30;1.40;;;21.30;99.90;;;;;;4051875;29;20083;-55
2023/08/09 08:38:18;;;;;;;5.68;1.15;;;21.40;99.90;;;;;;4050054;29;20048;-54
2023/08/09 08:40:22;;;;;;;1.52;0.93;;;21.40;99.90;;;;;;4051996;29;20409;-54
2023/08/09 08:42:24;;;;;;;2.63;1.00;;;21.50;99.90;;;;;;4066669;29;20048;-54
2023/08/09 08:44:26;;;;;;;3.30;1.10;;;21.60;99.90;;;;;;4051954;29;20048;-54
2023/08/09 08:46:31;;;;;;;1.90;0.73;;;21.70;99.90;;;;;;4051340;29;20058;-54
2023/08/09 08:48:33;;;;;;;3.28;1.10;;;21.70;99.90;;;;;;4051762;29;20056;-54
2023/08/09 08:50:38;;;;;;;3.25;0.90;;;21.70;99.30;;;;;;4051836;29;20069;-54
2023/08/09 08:52:43;;;;;;;3.03;0.90;;;21.70;99.40;;;;;;4051689;29;20041;-54
2023/08/09 08:54:45;;;;;;;4.32;1.08;;;21.80;99.80;;;;;;4051664;29;20786;-55
2023/08/09 08:56:48;;;;;;;3.30;0.90;;;21.90;99.60;;;;;;4050678;29;20052;-54
2023/08/09 08:58:51;;;;;;;1.35;1.00;;;22.20;99.50;;;;;;4051340;29;20064;-52
2023/08/09 09:00:53;;;;;;;4.65;0.98;;;22.40;98.80;;;;;;4051511;29;20084;-52
2023/08/09 09:02:58;;;;;;;2.50;0.95;;;22.40;98.40;;;;;;4051405;29;20040;-52
2023/08/09 09:05:00;;;;;;;1.70;0.80;;;22.40;98.40;;;;;;4052258;29;20048;-52
2023/08/09 09:07:02;;;;;;;1.88;0.73;;;22.50;98.50;;;;;;4052804;29;20104;-54
2023/08/09 09:09:11;;;;;;;1.85;0.80;;;22.50;98.20;;;;;;4054878;29;20048;-52
2023/08/09 09:11:16;;;;;;;4.90;1.05;;;22.40;98.10;;;;;;4052995;29;20396;-54
2023/08/09 09:13:24;;;;;;;2.53;0.57;;;22.50;98.50;;;;;;4053879;29;20057;-54
2023/08/09 09:15:27;;;;;;;1.25;0.77;;;22.50;98.50;;;;;;4067929;29;20064;-54
2023/08/09 09:17:30;;;;;;;1.63;0.80;;;22.60;98.40;;;;;;4068984;29;20044;-54
2023/08/09 09:19:36;;;;;;;4.97;1.00;;;22.70;97.90;;;;;;4070916;29;20048;-53
2023/08/09 09:21:38;;;;;;;1.27;0.93;;;22.70;97.50;;;;;;4069149;29;20044;-53
2023/08/09 09:23:40;;;;;;;1.20;0.80;;;22.70;97.50;;;;;;4065056;29;20127;-54
2023/08/09 09:25:45;;;;;;;1.40;0.65;;;22.80;97.80;;;;;;4051902;29;20077;-51
2023/08/09 09:27:51;;;;;;;;;;;22.80;97.60;;;;;;4052314;29;20063;-52
2023/08/09 09:29:53;;;;;;;6.57;0.82;;;22.80;97.80;;;;;;4052687;29;19950;-54
2023/08/09 09:31:59;;;;;;;2.72;0.98;;;22.90;97.90;;;;;;4049934;29;20668;-52
2023/08/09 09:34:03;;;;;;;1.15;0.60;;;22.90;97.70;;;;;;4051249;29;20052;-52
2023/08/09 09:36:10;;;;;;;2.20;0.90;;;22.80;97.50;;;;;;4051573;29;20056;-52
2023/08/09 09:38:12;;;;;;;3.15;0.93;;;22.80;97.60;;;;;;4051177;29;20131;-52
2023/08/09 09:40:21;;;;;;;1.70;0.85;;;22.70;97.90;;;;;;4051207;29;20473;-54
2023/08/09 09:42:30;;;;;;;3.30;0.82;;;22.70;97.30;;;;;;4051860;29;20116;-54
2023/08/09 09:44:32;;;;;;;2.42;1.25;;;22.70;97.30;;;;;;4054289;29;20120;-54
2023/08/09 09:46:40;;;;;;;3.38;0.80;;;22.60;97.90;;;;;;4054997;29;20539;-55
2023/08/09 09:48:47;;;;;;;1.73;1.00;;;22.50;97.30;;;;;;4054447;29;20123;-54
2023/08/09 09:50:50;;;;;;;6.68;0.80;;;22.50;97.50;;;;;;4053149;29;20065;-54
2023/08/09 09:52:54;;;;;;;2.53;1.10;;;22.40;97.60;;;;;;4052157;29;20501;-53
2023/08/09 09:54:57;;;;;;;2.05;1.05;;;22.30;97.80;;;;;;4051936;29;20083;-54
2023/08/09 09:56:59;;;;;;;3.35;0.90;;;22.30;97.40;;;;;;4051420;29;20080;-54
2023/08/09 09:59:03;;;;;;;2.08;1.05;;;22.30;97.50;;;;;;4049571;29;20470;-52
2023/08/09 10:01:08;;;;;;;1.50;1.20;;;22.20;97.50;;;;;;4051512;29;20076;-54
2023/08/09 10:03:13;;;;;;;3.22;1.60;;;22.00;97.50;;;;;;4051537;29;20059;-58
2023/08/09 10:05:18;;;;;;;3.35;1.05;;;22.00;97.90;;;;;;4051688;29;20060;-53
2023/08/09 10:07:21;;;;;;;1.98;1.00;;;21.90;97.90;;;;;;4048435;29;20423;-53
2023/08/09 10:09:25;;;;;;;2.60;1.00;;;21.80;97.90;;;;;;4050430;29;20056;-52
2023/08/09 10:11:28;;;;;;;1.58;0.93;;;21.70;98.00;;;;;;4050864;29;20499;-53
2023/08/09 10:13:32;;;;;;;2.58;1.33;;;21.80;98.10;;;;;;4050787;29;20052;-53
2023/08/09 10:15:38;;;;;;;5.18;1.27;;;21.80;98.00;;;;;;4051097;29;20120;-53
2023/08/09 10:17:41;;;;;;;4.90;1.52;;;21.90;98.10;;;;;;4050411;29;20407;-53
2023/08/09 10:19:44;;;;;;;1.50;0.90;;;21.90;97.80;;;;;;4051311;29;20483;-53
2023/08/09 10:21:48;;;;;;;2.55;1.00;;;22.00;97.60;;;;;;4050669;29;20088;-53
2023/08/09 10:23:55;;;;;;;2.97;1.15;;;22.00;97.70;;;;;;4052619;29;20530;-52
2023/08/09 10:25:59;;;;;;;4.03;1.30;;;22.20;97.90;;;;;;4053570;29;20056;-52
2023/08/09 10:28:01;;;;;;;4.18;1.10;;;22.30;97.50;;;;;;4053403;29;20052;-52
2023/08/09 10:30:10;;;;;;;3.13;0.85;;;22.40;97.40;;;;;;4053980;29;20041;-52
2023/08/09 10:32:12;;;;;;;6.78;1.10;;;22.60;96.90;;;;;;4053783;29;20056;-51
2023/08/09 10:34:15;;;;;;;2.95;1.00;;;22.80;97.00;;;;;;4051327;29;20491;-54
2023/08/09 10:36:31;;;;;;;3.90;0.85;;;22.70;96.80;;;;;;4053965;29;20418;-53
2023/08/09 10:38:40;;;;;;;2.97;1.10;;;22.80;96.60;;;;;;4039074;29;20484;-52
2023/08/09 10:40:52;;;;;;;3.03;1.00;;;22.90;97.00;;;;;;4037848;29;20754;-53
2023/08/09 10:42:57;;;;;;;3.03;0.90;;;23.00;96.70;;;;;;4039491;29;20063;-52